sensor_id;sensor_type;location;lat;lon;timestamp;temperature;humidity
44509;DHT22;30214;52.246;14.408;2023-11-19T00:01:02;3.30;99.90
44509;DHT22;30214;52.246;14.408;2023-11-19T00:03:33;3.30;99.90
44509;DHT22;30214;52.246;14.408;2023-11-19T00:06:03;3.30;99.90
44509;DHT22;30214;52.246;14.408;2023-11-19T00:08:32;3.30;99.90
44509;DHT22;30214;52.246;14.408;2023-11-19T00:11:03;3.30;99.90
44509;DHT22;30214;52.246;14.408;2023-11-19T00:13:33;3.20;99.90
44509;DHT22;30214;52.246;14.408;2023-11-19T00:16:03;3.30;99.90
44509;DHT22;30214;52.246;14.408;2023-11-19T00:18:35;3.40;99.90
44509;DHT22;30214;52.246;14.408;2023-11-19T00:21:04;3.40;99.90
44509;DHT22;30214;52.246;14.408;2023-11-19T00:23:35;3.40;99.90
44509;DHT22;30214;52.246;14.408;2023-11-19T00:26:04;3.40;99.90
44509;DHT22;30214;52.246;14.408;2023-11-19T00:28:33;3.40;99.90
44509;DHT22;30214;52.246;14.408;2023-11-19T00:31:05;3.50;99.90
44509;DHT22;30214;52.246;14.408;2023-11-19T00:33:35;3.60;99.90
44509;DHT22;30214;52.246;14.408;2023-11-19T00:36:07;3.60;99.90
44509;DHT22;30214;52.246;14.408;2023-11-19T00:38:35;3.60;99.90
44509;DHT22;30214;52.246;14.408;2023-11-19T00:41:06;3.50;99.90
44509;DHT22;30214;52.246;14.408;2023-11-19T00:43:35;3.60;99.90
44509;DHT22;30214;52.246;14.408;2023-11-19T00:46:05;3.60;99.90
44509;DHT22;30214;52.246;14.408;2023-11-19T00:48:38;3.60;99.90
44509;DHT22;30214;52.246;14.408;2023-11-19T00:51:07;3.50;99.90
44509;DHT22;30214;52.246;14.408;2023-11-19T00:53:35;3.50;99.90
44509;DHT22;30214;52.246;14.408;2023-11-19T00:56:05;3.60;99.90
44509;DHT22;30214;52.246;14.408;2023-11-19T00:58:38;3.60;99.90
44509;DHT22;30214;52.246;14.408;2023-11-19T01:01:06;3.70;99.90
44509;DHT22;30214;52.246;14.408;2023-11-19T01:03:35;3.70;99.90
44509;DHT22;30214;52.246;14.408;2023-11-19T01:06:05;3.70;99.90
44509;DHT22;30214;52.246;14.408;2023-11-19T01:08:34;3.80;99.90
44509;DHT22;30214;52.246;14.408;2023-11-19T01:11:04;3.80;99.90
44509;DHT22;30214;52.246;14.408;2023-11-19T01:13:35;3.90;99.90
44509;DHT22;30214;52.246;14.408;2023-11-19T01:16:06;3.80;99.90
44509;DHT22;30214;52.246;14.408;2023-11-19T01:18:39;3.80;99.90
44509;DHT22;30214;52.246;14.408;2023-11-19T01:21:09;3.90;99.90
44509;DHT22;30214;52.246;14.408;2023-11-19T01:23:42;3.90;99.90
44509;DHT22;30214;52.246;14.408;2023-11-19T01:26:12;3.90;99.90
44509;DHT22;30214;52.246;14.408;2023-11-19T01:28:41;3.90;99.90
44509;DHT22;30214;52.246;14.408;2023-11-19T01:31:12;3.90;99.90
44509;DHT22;30214;52.246;14.408;2023-11-19T01:33:43;3.90;99.90
44509;DHT22;30214;52.246;14.408;2023-11-19T01:36:15;4.00;99.90
44509;DHT22;30214;52.246;14.408;2023-11-19T01:38:44;4.00;99.90
44509;DHT22;30214;52.246;14.408;2023-11-19T01:41:13;4.00;99.90
44509;DHT22;30214;52.246;14.408;2023-11-19T01:43:42;4.00;99.90
44509;DHT22;30214;52.246;14.408;2023-11-19T01:46:13;4.10;99.90
44509;DHT22;30214;52.246;14.408;2023-11-19T01:48:43;4.00;99.90
44509;DHT22;30214;52.246;14.408;2023-11-19T01:51:14;4.10;99.90
44509;DHT22;30214;52.246;14.408;2023-11-19T01:53:44;4.00;99.90
44509;DHT22;30214;52.246;14.408;2023-11-19T01:56:15;4.00;99.90
44509;DHT22;30214;52.246;14.408;2023-11-19T01:58:44;4.00;99.90
44509;DHT22;30214;52.246;14.408;2023-11-19T02:01:14;4.00;99.90
44509;DHT22;30214;52.246;14.408;2023-11-19T02:03:44;4.10;99.90
44509;DHT22;30214;52.246;14.408;2023-11-19T02:06:14;4.10;99.90
44509;DHT22;30214;52.246;14.408;2023-11-19T02:08:43;4.10;99.90
44509;DHT22;30214;52.246;14.408;2023-11-19T02:11:12;4.10;99.90
44509;DHT22;30214;52.246;14.408;2023-11-19T02:13:41;4.10;99.90
44509;DHT22;30214;52.246;14.408;2023-11-19T02:16:10;4.10;99.90
44509;DHT22;30214;52.246;14.408;2023-11-19T02:18:42;4.20;99.90
44509;DHT22;30214;52.246;14.408;2023-11-19T02:21:12;4.10;99.90
44509;DHT22;30214;52.246;14.408;2023-11-19T02:23:44;4.10;99.90
44509;DHT22;30214;52.246;14.408;2023-11-19T02:26:19;4.20;99.90
44509;DHT22;30214;52.246;14.408;2023-11-19T02:28:53;4.20;99.90
44509;DHT22;30214;52.246;14.408;2023-11-19T02:31:21;4.20;99.90
44509;DHT22;30214;52.246;14.408;2023-11-19T02:33:55;4.20;99.90
44509;DHT22;30214;52.246;14.408;2023-11-19T02:36:26;4.20;99.90
44509;DHT22;30214;52.246;14.408;2023-11-19T02:38:55;4.20;99.90
44509;DHT22;30214;52.246;14.408;2023-11-19T02:41:23;4.20;99.90
44509;DHT22;30214;52.246;14.408;2023-11-19T02:43:56;4.20;99.90
44509;DHT22;30214;52.246;14.408;2023-11-19T02:46:24;4.20;99.90
44509;DHT22;30214;52.246;14.408;2023-11-19T02:48:53;4.20;99.90
44509;DHT22;30214;52.246;14.408;2023-11-19T02:51:29;4.20;99.90
44509;DHT22;30214;52.246;14.408;2023-11-19T02:53:58;4.30;99.90
44509;DHT22;30214;52.246;14.408;2023-11-19T02:56:27;4.30;99.90
44509;DHT22;30214;52.246;14.408;2023-11-19T02:59:03;4.30;99.90
44509;DHT22;30214;52.246;14.408;2023-11-19T03:01:42;4.30;99.90
44509;DHT22;30214;52.246;14.408;2023-11-19T03:04:16;4.30;99.90
44509;DHT22;30214;52.246;14.408;2023-11-19T03:06:55;4.30;99.90
44509;DHT22;30214;52.246;14.408;2023-11-19T03:09:23;4.30;99.90
44509;DHT22;30214;52.246;14.408;2023-11-19T03:11:54;4.30;99.90
44509;DHT22;30214;52.246;14.408;2023-11-19T03:14:27;4.30;99.90
44509;DHT22;30214;52.246;14.408;2023-11-19T03:17:00;4.30;99.90
44509;DHT22;30214;52.246;14.408;2023-11-19T03:19:29;4.30;99.90
44509;DHT22;30214;52.246;14.408;2023-11-19T03:21:59;4.30;99.90
44509;DHT22;30214;52.246;14.408;2023-11-19T03:24:30;4.30;99.90
44509;DHT22;30214;52.246;14.408;2023-11-19T03:26:59;4.40;99.90
44509;DHT22;30214;52.246;14.408;2023-11-19T03:29:29;4.30;99.90
44509;DHT22;30214;52.246;14.408;2023-11-19T03:31:57;4.40;99.90
44509;DHT22;30214;52.246;14.408;2023-11-19T03:34:29;4.40;99.90
44509;DHT22;30214;52.246;14.408;2023-11-19T03:36:59;4.40;99.90
44509;DHT22;30214;52.246;14.408;2023-11-19T03:39:28;4.40;99.90
44509;DHT22;30214;52.246;14.408;2023-11-19T03:41:57;4.40;99.90
44509;DHT22;30214;52.246;14.408;2023-11-19T03:44:28;4.40;99.90
44509;DHT22;30214;52.246;14.408;2023-11-19T03:46:58;4.40;99.90
44509;DHT22;30214;52.246;14.408;2023-11-19T03:49:28;4.40;99.90
44509;DHT22;30214;52.246;14.408;2023-11-19T03:52:01;4.50;99.90
44509;DHT22;30214;52.246;14.408;2023-11-19T03:54:33;4.50;99.90
44509;DHT22;30214;52.246;14.408;2023-11-19T03:57:03;4.50;99.90
44509;DHT22;30214;52.246;14.408;2023-11-19T03:59:35;4.50;99.90
44509;DHT22;30214;52.246;14.408;2023-11-19T04:02:03;4.50;99.90
44509;DHT22;30214;52.246;14.408;2023-11-19T04:04:33;4.50;99.90
44509;DHT22;30214;52.246;14.408;2023-11-19T04:07:02;4.40;99.90
44509;DHT22;30214;52.246;14.408;2023-11-19T04:09:31;4.50;99.90
44509;DHT22;30214;52.246;14.408;2023-11-19T04:12:02;4.50;99.90
44509;DHT22;30214;52.246;14.408;2023-11-19T04:14:32;4.50;99.90
44509;DHT22;30214;52.246;14.408;2023-11-19T04:17:02;4.50;99.90
44509;DHT22;30214;52.246;14.408;2023-11-19T04:19:32;4.50;99.90
44509;DHT22;30214;52.246;14.408;2023-11-19T04:22:00;4.50;99.90
44509;DHT22;30214;52.246;14.408;2023-11-19T04:24:28;4.50;99.90
44509;DHT22;30214;52.246;14.408;2023-11-19T04:26:57;4.50;99.90
44509;DHT22;30214;52.246;14.408;2023-11-19T04:29:26;4.40;99.90
44509;DHT22;30214;52.246;14.408;2023-11-19T04:31:57;4.40;99.90
44509;DHT22;30214;52.246;14.408;2023-11-19T04:34:30;4.50;99.90
44509;DHT22;30214;52.246;14.408;2023-11-19T04:37:03;4.50;99.90
44509;DHT22;30214;52.246;14.408;2023-11-19T04:39:31;4.50;99.90
44509;DHT22;30214;52.246;14.408;2023-11-19T04:42:00;4.50;99.90
44509;DHT22;30214;52.246;14.408;2023-11-19T04:44:30;4.50;99.90
44509;DHT22;30214;52.246;14.408;2023-11-19T04:46:58;4.50;99.90
44509;DHT22;30214;52.246;14.408;2023-11-19T04:49:27;4.50;99.90
44509;DHT22;30214;52.246;14.408;2023-11-19T04:51:57;4.50;99.90
44509;DHT22;30214;52.246;14.408;2023-11-19T04:54:25;4.50;99.90
44509;DHT22;30214;52.246;14.408;2023-11-19T04:56:55;4.40;99.90
44509;DHT22;30214;52.246;14.408;2023-11-19T04:59:24;4.40;99.90
44509;DHT22;30214;52.246;14.408;2023-11-19T05:01:54;4.40;99.90
44509;DHT22;30214;52.246;14.408;2023-11-19T05:04:29;4.40;99.90
44509;DHT22;30214;52.246;14.408;2023-11-19T05:06:57;4.30;99.90
44509;DHT22;30214;52.246;14.408;2023-11-19T05:09:27;4.30;99.90
44509;DHT22;30214;52.246;14.408;2023-11-19T05:11:56;4.30;99.90
44509;DHT22;30214;52.246;14.408;2023-11-19T05:14:25;4.20;99.90
44509;DHT22;30214;52.246;14.408;2023-11-19T05:16:54;4.20;99.90
44509;DHT22;30214;52.246;14.408;2023-11-19T05:19:25;4.20;99.90
44509;DHT22;30214;52.246;14.408;2023-11-19T05:21:56;4.10;99.90
44509;DHT22;30214;52.246;14.408;2023-11-19T05:24:25;4.10;99.90
44509;DHT22;30214;52.246;14.408;2023-11-19T05:26:56;4.10;99.90
44509;DHT22;30214;52.246;14.408;2023-11-19T05:29:24;4.00;99.90
44509;DHT22;30214;52.246;14.408;2023-11-19T05:31:56;4.00;99.90
44509;DHT22;30214;52.246;14.408;2023-11-19T05:34:24;4.00;99.90
44509;DHT22;30214;52.246;14.408;2023-11-19T05:36:59;4.00;99.90
44509;DHT22;30214;52.246;14.408;2023-11-19T05:39:28;4.10;99.90
44509;DHT22;30214;52.246;14.408;2023-11-19T05:41:56;4.00;99.90
44509;DHT22;30214;52.246;14.408;2023-11-19T05:44:23;3.90;99.90
44509;DHT22;30214;52.246;14.408;2023-11-19T05:46:50;3.90;99.90
44509;DHT22;30214;52.246;14.408;2023-11-19T05:49:17;3.90;99.90
44509;DHT22;30214;52.246;14.408;2023-11-19T05:51:44;3.90;99.90
44509;DHT22;30214;52.246;14.408;2023-11-19T05:54:13;3.90;99.90
44509;DHT22;30214;52.246;14.408;2023-11-19T05:56:40;4.00;99.90
44509;DHT22;30214;52.246;14.408;2023-11-19T05:59:07;4.00;99.90
44509;DHT22;30214;52.246;14.408;2023-11-19T06:01:40;4.00;99.90
44509;DHT22;30214;52.246;14.408;2023-11-19T06:04:08;3.90;99.90
44509;DHT22;30214;52.246;14.408;2023-11-19T06:06:36;4.00;99.90
44509;DHT22;30214;52.246;14.408;2023-11-19T06:09:03;3.90;99.90
44509;DHT22;30214;52.246;14.408;2023-11-19T06:11:33;4.00;99.90
44509;DHT22;30214;52.246;14.408;2023-11-19T06:14:01;4.00;99.90
44509;DHT22;30214;52.246;14.408;2023-11-19T06:16:31;4.00;99.90
44509;DHT22;30214;52.246;14.408;2023-11-19T06:18:58;4.00;99.90
44509;DHT22;30214;52.246;14.408;2023-11-19T06:21:26;3.90;99.90
44509;DHT22;30214;52.246;14.408;2023-11-19T06:23:53;3.90;99.90
44509;DHT22;30214;52.246;14.408;2023-11-19T06:26:23;3.90;99.90
44509;DHT22;30214;52.246;14.408;2023-11-19T06:28:57;4.00;99.90
44509;DHT22;30214;52.246;14.408;2023-11-19T06:31:25;4.00;99.90
44509;DHT22;30214;52.246;14.408;2023-11-19T06:33:54;4.00;99.90
44509;DHT22;30214;52.246;14.408;2023-11-19T06:36:22;4.00;99.90
44509;DHT22;30214;52.246;14.408;2023-11-19T06:38:51;4.00;99.90
44509;DHT22;30214;52.246;14.408;2023-11-19T06:41:20;4.00;99.90
44509;DHT22;30214;52.246;14.408;2023-11-19T06:43:47;4.00;99.90
44509;DHT22;30214;52.246;14.408;2023-11-19T06:46:24;4.00;99.90
44509;DHT22;30214;52.246;14.408;2023-11-19T06:48:55;4.00;99.90
44509;DHT22;30214;52.246;14.408;2023-11-19T06:51:24;4.00;99.90
44509;DHT22;30214;52.246;14.408;2023-11-19T06:53:53;4.00;99.90
44509;DHT22;30214;52.246;14.408;2023-11-19T06:56:22;4.00;99.90
44509;DHT22;30214;52.246;14.408;2023-11-19T06:58:53;4.10;99.90
44509;DHT22;30214;52.246;14.408;2023-11-19T07:01:23;4.10;99.90
44509;DHT22;30214;52.246;14.408;2023-11-19T07:03:53;4.10;99.90
44509;DHT22;30214;52.246;14.408;2023-11-19T07:06:25;4.10;99.90
44509;DHT22;30214;52.246;14.408;2023-11-19T07:08:55;4.10;99.90
44509;DHT22;30214;52.246;14.408;2023-11-19T07:11:24;4.10;99.90
44509;DHT22;30214;52.246;14.408;2023-11-19T07:13:52;4.10;99.90
44509;DHT22;30214;52.246;14.408;2023-11-19T07:16:22;4.10;99.90
44509;DHT22;30214;52.246;14.408;2023-11-19T07:18:50;4.10;99.90
44509;DHT22;30214;52.246;14.408;2023-11-19T07:21:21;4.10;99.90
44509;DHT22;30214;52.246;14.408;2023-11-19T07:23:53;4.10;99.90
44509;DHT22;30214;52.246;14.408;2023-11-19T07:26:22;4.10;99.90
44509;DHT22;30214;52.246;14.408;2023-11-19T07:28:52;4.10;99.90
44509;DHT22;30214;52.246;14.408;2023-11-19T07:31:27;4.20;99.90
44509;DHT22;30214;52.246;14.408;2023-11-19T07:33:57;4.20;99.90
44509;DHT22;30214;52.246;14.408;2023-11-19T07:36:29;4.20;99.90
44509;DHT22;30214;52.246;14.408;2023-11-19T07:38:58;4.20;99.90
44509;DHT22;30214;52.246;14.408;2023-11-19T07:41:27;4.30;99.90
44509;DHT22;30214;52.246;14.408;2023-11-19T07:43:57;4.30;99.90
44509;DHT22;30214;52.246;14.408;2023-11-19T07:46:32;4.30;99.90
44509;DHT22;30214;52.246;14.408;2023-11-19T07:49:01;4.30;99.90
44509;DHT22;30214;52.246;14.408;2023-11-19T07:51:32;4.30;99.90
44509;DHT22;30214;52.246;14.408;2023-11-19T07:54:05;4.40;99.90
44509;DHT22;30214;52.246;14.408;2023-11-19T07:56:34;4.40;99.90
44509;DHT22;30214;52.246;14.408;2023-11-19T07:59:04;4.50;99.90
44509;DHT22;30214;52.246;14.408;2023-11-19T08:01:36;4.50;99.90
44509;DHT22;30214;52.246;14.408;2023-11-19T08:04:05;4.50;99.90
44509;DHT22;30214;52.246;14.408;2023-11-19T08:06:35;4.50;99.90
44509;DHT22;30214;52.246;14.408;2023-11-19T08:09:06;4.60;99.90
44509;DHT22;30214;52.246;14.408;2023-11-19T08:11:41;4.60;99.90
44509;DHT22;30214;52.246;14.408;2023-11-19T08:14:11;4.60;99.90
44509;DHT22;30214;52.246;14.408;2023-11-19T08:16:42;4.60;99.90
44509;DHT22;30214;52.246;14.408;2023-11-19T08:19:11;4.60;99.90
44509;DHT22;30214;52.246;14.408;2023-11-19T08:21:41;4.50;99.90
44509;DHT22;30214;52.246;14.408;2023-11-19T08:24:11;4.60;99.90
44509;DHT22;30214;52.246;14.408;2023-11-19T08:26:44;4.70;99.90
44509;DHT22;30214;52.246;14.408;2023-11-19T08:29:13;4.70;99.90
44509;DHT22;30214;52.246;14.408;2023-11-19T08:31:51;4.70;99.90
44509;DHT22;30214;52.246;14.408;2023-11-19T08:34:28;4.70;99.90
44509;DHT22;30214;52.246;14.408;2023-11-19T08:36:57;4.80;99.90
44509;DHT22;30214;52.246;14.408;2023-11-19T08:39:25;4.80;99.90
44509;DHT22;30214;52.246;14.408;2023-11-19T08:41:58;4.80;99.90
44509;DHT22;30214;52.246;14.408;2023-11-19T08:44:27;4.80;99.90
44509;DHT22;30214;52.246;14.408;2023-11-19T08:47:08;4.80;99.90
44509;DHT22;30214;52.246;14.408;2023-11-19T08:49:39;4.90;99.90
44509;DHT22;30214;52.246;14.408;2023-11-19T08:52:08;5.00;99.90
44509;DHT22;30214;52.246;14.408;2023-11-19T08:54:38;5.00;99.90
44509;DHT22;30214;52.246;14.408;2023-11-19T08:57:10;5.10;99.90
44509;DHT22;30214;52.246;14.408;2023-11-19T08:59:39;5.10;99.90
44509;DHT22;30214;52.246;14.408;2023-11-19T09:02:18;5.20;99.90
44509;DHT22;30214;52.246;14.408;2023-11-19T09:04:49;5.20;99.90
44509;DHT22;30214;52.246;14.408;2023-11-19T09:07:19;5.30;99.90
44509;DHT22;30214;52.246;14.408;2023-11-19T09:09:49;5.30;99.90
44509;DHT22;30214;52.246;14.408;2023-11-19T09:12:19;5.30;99.90
44509;DHT22;30214;52.246;14.408;2023-11-19T09:18:25;5.40;99.90
44509;DHT22;30214;52.246;14.408;2023-11-19T09:20:55;5.40;99.90
44509;DHT22;30214;52.246;14.408;2023-11-19T09:23:26;5.40;99.90
44509;DHT22;30214;52.246;14.408;2023-11-19T09:25:54;5.40;99.90
44509;DHT22;30214;52.246;14.408;2023-11-19T09:28:22;5.50;99.90
44509;DHT22;30214;52.246;14.408;2023-11-19T09:30:49;5.50;99.90
44509;DHT22;30214;52.246;14.408;2023-11-19T09:33:17;5.50;99.90
44509;DHT22;30214;52.246;14.408;2023-11-19T09:35:49;5.50;99.90
44509;DHT22;30214;52.246;14.408;2023-11-19T09:38:19;5.60;99.90
44509;DHT22;30214;52.246;14.408;2023-11-19T09:40:48;5.60;99.90
44509;DHT22;30214;52.246;14.408;2023-11-19T09:43:17;5.70;99.90
44509;DHT22;30214;52.246;14.408;2023-11-19T09:45:48;5.60;99.90
44509;DHT22;30214;52.246;14.408;2023-11-19T09:48:17;5.80;99.90
44509;DHT22;30214;52.246;14.408;2023-11-19T09:50:47;5.80;99.90
44509;DHT22;30214;52.246;14.408;2023-11-19T09:53:15;5.80;99.90
44509;DHT22;30214;52.246;14.408;2023-11-19T09:55:42;5.80;99.90
44509;DHT22;30214;52.246;14.408;2023-11-19T09:58:12;5.90;99.90
44509;DHT22;30214;52.246;14.408;2023-11-19T10:00:41;6.10;99.90
44509;DHT22;30214;52.246;14.408;2023-11-19T10:03:10;6.20;99.90
44509;DHT22;30214;52.246;14.408;2023-11-19T10:05:39;6.30;99.90
44509;DHT22;30214;52.246;14.408;2023-11-19T10:08:09;6.40;99.90
44509;DHT22;30214;52.246;14.408;2023-11-19T10:10:37;6.40;99.90
44509;DHT22;30214;52.246;14.408;2023-11-19T10:13:05;6.50;99.90
44509;DHT22;30214;52.246;14.408;2023-11-19T10:15:36;6.50;99.90
44509;DHT22;30214;52.246;14.408;2023-11-19T10:18:04;6.60;99.90
44509;DHT22;30214;52.246;14.408;2023-11-19T10:20:35;6.60;99.90
44509;DHT22;30214;52.246;14.408;2023-11-19T10:23:04;6.70;99.90
44509;DHT22;30214;52.246;14.408;2023-11-19T10:25:33;6.80;99.90
44509;DHT22;30214;52.246;14.408;2023-11-19T10:28:00;6.90;99.90
44509;DHT22;30214;52.246;14.408;2023-11-19T10:30:30;6.90;99.90
44509;DHT22;30214;52.246;14.408;2023-11-19T10:33:07;6.90;99.90
44509;DHT22;30214;52.246;14.408;2023-11-19T10:35:36;7.00;99.90
44509;DHT22;30214;52.246;14.408;2023-11-19T10:38:13;7.00;99.90
44509;DHT22;30214;52.246;14.408;2023-11-19T10:40:43;7.10;99.90
44509;DHT22;30214;52.246;14.408;2023-11-19T10:43:11;7.10;99.90
44509;DHT22;30214;52.246;14.408;2023-11-19T10:45:39;7.20;99.90
44509;DHT22;30214;52.246;14.408;2023-11-19T10:48:07;7.30;99.90
44509;DHT22;30214;52.246;14.408;2023-11-19T10:50:37;7.40;99.90
44509;DHT22;30214;52.246;14.408;2023-11-19T10:53:05;7.50;99.90
44509;DHT22;30214;52.246;14.408;2023-11-19T10:55:35;7.60;99.90
44509;DHT22;30214;52.246;14.408;2023-11-19T10:58:07;7.70;99.90
44509;DHT22;30214;52.246;14.408;2023-11-19T11:00:38;7.80;99.90
44509;DHT22;30214;52.246;14.408;2023-11-19T11:03:11;7.90;99.90
44509;DHT22;30214;52.246;14.408;2023-11-19T11:05:43;8.00;99.90
44509;DHT22;30214;52.246;14.408;2023-11-19T11:08:13;8.20;99.90
44509;DHT22;30214;52.246;14.408;2023-11-19T11:10:44;8.30;99.90
44509;DHT22;30214;52.246;14.408;2023-11-19T11:13:14;8.30;99.90
44509;DHT22;30214;52.246;14.408;2023-11-19T11:15:41;8.30;99.90
44509;DHT22;30214;52.246;14.408;2023-11-19T11:18:09;8.30;99.90
44509;DHT22;30214;52.246;14.408;2023-11-19T11:20:36;8.40;99.90
44509;DHT22;30214;52.246;14.408;2023-11-19T11:23:31;8.60;99.90
44509;DHT22;30214;52.246;14.408;2023-11-19T11:26:37;8.60;99.90
44509;DHT22;30214;52.246;14.408;2023-11-19T11:29:16;8.60;99.90
44509;DHT22;30214;52.246;14.408;2023-11-19T11:31:59;8.70;99.90
44509;DHT22;30214;52.246;14.408;2023-11-19T11:34:44;8.70;99.90
44509;DHT22;30214;52.246;14.408;2023-11-19T11:37:21;8.90;99.90
44509;DHT22;30214;52.246;14.408;2023-11-19T11:39:52;9.00;99.90
44509;DHT22;30214;52.246;14.408;2023-11-19T11:42:33;9.00;99.90
44509;DHT22;30214;52.246;14.408;2023-11-19T11:45:04;9.00;99.90
44509;DHT22;30214;52.246;14.408;2023-11-19T11:48:06;9.00;99.90
44509;DHT22;30214;52.246;14.408;2023-11-19T11:50:52;9.10;99.90
44509;DHT22;30214;52.246;14.408;2023-11-19T11:53:24;9.20;99.90
44509;DHT22;30214;52.246;14.408;2023-11-19T11:55:56;9.30;99.90
44509;DHT22;30214;52.246;14.408;2023-11-19T11:58:31;9.40;99.90
44509;DHT22;30214;52.246;14.408;2023-11-19T12:01:02;9.50;99.90
44509;DHT22;30214;52.246;14.408;2023-11-19T12:03:32;9.60;99.90
44509;DHT22;30214;52.246;14.408;2023-11-19T12:05:59;9.70;99.90
44509;DHT22;30214;52.246;14.408;2023-11-19T12:08:29;9.80;99.90
44509;DHT22;30214;52.246;14.408;2023-11-19T12:10:58;9.70;99.90
44509;DHT22;30214;52.246;14.408;2023-11-19T12:13:46;9.80;99.90
44509;DHT22;30214;52.246;14.408;2023-11-19T12:16:17;9.90;99.90
44509;DHT22;30214;52.246;14.408;2023-11-19T12:18:47;10.00;99.90
44509;DHT22;30214;52.246;14.408;2023-11-19T12:21:28;10.00;99.90
44509;DHT22;30214;52.246;14.408;2023-11-19T12:23:58;10.00;99.90
44509;DHT22;30214;52.246;14.408;2023-11-19T12:26:47;10.00;99.90
44509;DHT22;30214;52.246;14.408;2023-11-19T12:29:18;10.00;99.90
44509;DHT22;30214;52.246;14.408;2023-11-19T12:31:54;10.10;99.90
44509;DHT22;30214;52.246;14.408;2023-11-19T12:34:22;10.10;99.90
44509;DHT22;30214;52.246;14.408;2023-11-19T12:36:49;10.10;99.90
44509;DHT22;30214;52.246;14.408;2023-11-19T12:39:17;10.10;99.90
44509;DHT22;30214;52.246;14.408;2023-11-19T12:41:52;10.10;99.90
44509;DHT22;30214;52.246;14.408;2023-11-19T12:44:20;10.10;99.90
44509;DHT22;30214;52.246;14.408;2023-11-19T12:47:04;10.10;99.90
44509;DHT22;30214;52.246;14.408;2023-11-19T12:49:33;10.20;99.90
44509;DHT22;30214;52.246;14.408;2023-11-19T12:52:00;10.20;99.90
44509;DHT22;30214;52.246;14.408;2023-11-19T12:54:32;10.20;99.90
44509;DHT22;30214;52.246;14.408;2023-11-19T12:57:00;10.20;99.90
44509;DHT22;30214;52.246;14.408;2023-11-19T12:59:27;10.30;99.90
44509;DHT22;30214;52.246;14.408;2023-11-19T13:02:00;10.30;99.90
44509;DHT22;30214;52.246;14.408;2023-11-19T13:04:29;10.30;99.90
44509;DHT22;30214;52.246;14.408;2023-11-19T13:06:57;10.40;99.90
44509;DHT22;30214;52.246;14.408;2023-11-19T13:09:25;10.40;99.90
44509;DHT22;30214;52.246;14.408;2023-11-19T13:11:54;10.40;99.90
44509;DHT22;30214;52.246;14.408;2023-11-19T13:14:22;10.40;99.90
44509;DHT22;30214;52.246;14.408;2023-11-19T13:16:49;10.50;99.90
44509;DHT22;30214;52.246;14.408;2023-11-19T13:19:18;10.50;99.90
44509;DHT22;30214;52.246;14.408;2023-11-19T13:21:45;10.60;99.90
44509;DHT22;30214;52.246;14.408;2023-11-19T13:24:13;10.60;99.90
44509;DHT22;30214;52.246;14.408;2023-11-19T13:26:41;10.60;99.90
44509;DHT22;30214;52.246;14.408;2023-11-19T13:29:08;10.60;99.90
44509;DHT22;30214;52.246;14.408;2023-11-19T13:31:36;10.60;99.90
44509;DHT22;30214;52.246;14.408;2023-11-19T13:34:04;10.60;99.90
44509;DHT22;30214;52.246;14.408;2023-11-19T13:36:34;10.60;99.90
44509;DHT22;30214;52.246;14.408;2023-11-19T13:39:01;10.60;99.90
44509;DHT22;30214;52.246;14.408;2023-11-19T13:41:29;10.60;99.90
44509;DHT22;30214;52.246;14.408;2023-11-19T13:43:57;10.60;99.90
44509;DHT22;30214;52.246;14.408;2023-11-19T13:46:24;10.60;99.90
44509;DHT22;30214;52.246;14.408;2023-11-19T13:48:51;10.60;99.90
44509;DHT22;30214;52.246;14.408;2023-11-19T13:51:19;10.60;99.90
44509;DHT22;30214;52.246;14.408;2023-11-19T13:53:58;10.50;99.90
44509;DHT22;30214;52.246;14.408;2023-11-19T13:56:29;10.50;99.90
44509;DHT22;30214;52.246;14.408;2023-11-19T13:59:13;10.60;99.90
44509;DHT22;30214;52.246;14.408;2023-11-19T14:02:07;10.50;99.90
44509;DHT22;30214;52.246;14.408;2023-11-19T14:05:00;10.50;99.90
44509;DHT22;30214;52.246;14.408;2023-11-19T14:11:09;10.40;99.90
44509;DHT22;30214;52.246;14.408;2023-11-19T14:13:38;10.40;99.90
44509;DHT22;30214;52.246;14.408;2023-11-19T14:16:11;10.40;99.90
44509;DHT22;30214;52.246;14.408;2023-11-19T14:18:44;10.40;99.90
44509;DHT22;30214;52.246;14.408;2023-11-19T14:21:34;10.40;99.90
44509;DHT22;30214;52.246;14.408;2023-11-19T14:24:40;10.30;99.90
44509;DHT22;30214;52.246;14.408;2023-11-19T14:27:10;10.30;99.90
44509;DHT22;30214;52.246;14.408;2023-11-19T14:29:44;10.20;99.90
44509;DHT22;30214;52.246;14.408;2023-11-19T14:32:15;10.20;99.90
44509;DHT22;30214;52.246;14.408;2023-11-19T14:34:42;10.20;99.90
44509;DHT22;30214;52.246;14.408;2023-11-19T14:37:15;10.30;99.90
44509;DHT22;30214;52.246;14.408;2023-11-19T14:39:46;10.30;99.90
44509;DHT22;30214;52.246;14.408;2023-11-19T14:42:18;10.30;99.90
44509;DHT22;30214;52.246;14.408;2023-11-19T14:44:49;10.30;99.90
44509;DHT22;30214;52.246;14.408;2023-11-19T14:47:25;10.40;99.90
44509;DHT22;30214;52.246;14.408;2023-11-19T14:49:53;10.30;99.90
44509;DHT22;30214;52.246;14.408;2023-11-19T14:52:20;10.30;99.90
44509;DHT22;30214;52.246;14.408;2023-11-19T14:54:48;10.30;99.90
44509;DHT22;30214;52.246;14.408;2023-11-19T14:57:19;10.20;99.90
44509;DHT22;30214;52.246;14.408;2023-11-19T14:59:48;10.20;99.90
44509;DHT22;30214;52.246;14.408;2023-11-19T15:02:18;10.20;99.90
44509;DHT22;30214;52.246;14.408;2023-11-19T15:04:47;10.20;99.90
44509;DHT22;30214;52.246;14.408;2023-11-19T15:07:15;10.10;99.90
44509;DHT22;30214;52.246;14.408;2023-11-19T15:09:43;10.10;99.90
44509;DHT22;30214;52.246;14.408;2023-11-19T15:12:14;10.10;99.90
44509;DHT22;30214;52.246;14.408;2023-11-19T15:14:50;10.20;99.90
44509;DHT22;30214;52.246;14.408;2023-11-19T15:17:29;10.20;99.90
44509;DHT22;30214;52.246;14.408;2023-11-19T15:20:26;10.20;99.90
44509;DHT22;30214;52.246;14.408;2023-11-19T15:23:43;10.30;99.90
44509;DHT22;30214;52.246;14.408;2023-11-19T15:27:30;10.30;99.90
44509;DHT22;30214;52.246;14.408;2023-11-19T15:38:02;10.20;99.90
44509;DHT22;30214;52.246;14.408;2023-11-19T15:40:49;10.10;99.90
44509;DHT22;30214;52.246;14.408;2023-11-19T15:43:49;10.10;99.90
44509;DHT22;30214;52.246;14.408;2023-11-19T15:46:56;10.10;99.90
44509;DHT22;30214;52.246;14.408;2023-11-19T15:50:51;10.10;99.90
44509;DHT22;30214;52.246;14.408;2023-11-19T15:58:59;10.00;99.90
44509;DHT22;30214;52.246;14.408;2023-11-19T16:02:34;10.00;99.90
44509;DHT22;30214;52.246;14.408;2023-11-19T16:06:18;10.00;99.90
44509;DHT22;30214;52.246;14.408;2023-11-19T16:25:48;9.90;99.90
44509;DHT22;30214;52.246;14.408;2023-11-19T16:29:35;9.90;99.90
44509;DHT22;30214;52.246;14.408;2023-11-19T16:31:56;9.90;99.90
44509;DHT22;30214;52.246;14.408;2023-11-19T16:34:55;9.80;99.90
44509;DHT22;30214;52.246;14.408;2023-11-19T16:38:36;9.80;99.90